Date,TemperatureHighF,TemperatureAvgF,TemperatureLowF,DewpointHighF,DewpointAvgF,DewpointLowF,HumidityHigh,HumidityAvg,HumidityLow,PressureMaxIn,PressureMinIn,WindSpeedMaxMPH,WindSpeedAvgMPH,GustSpeedMaxMPH,PrecipitationSumIn
2013-1-1,27.0,18.5,4.8,23.0,10.2,-3.0,87,71,53,29.81,29.59,20,9,0,0.02
2013-1-2,12.2,3.9,-2.4,1.0,-5.1,-10.0,77,67,51,30.01,29.80,18,7,0,0.00
2013-1-3,16.5,5.8,-3.1,3.0,-3.5,-9.0,75,66,54,30.08,29.96,20,8,0,0.00
2013-1-4,28.1,22.3,10.5,23.0,15.5,1.0,81,75,61,29.94,29.71,16,8,0,0.00
2013-1-5,28.3,22.4,13.7,23.0,12.5,4.0,82,66,49,30.27,29.70,22,6,0,0.00
2013-1-6,27.8,20.5,12.2,24.0,16.5,4.0,94,84,64,30.24,29.94,6,2,0,0.02
2013-1-7,19.2,13.7,8.2,18.0,7.6,0.0,94,78,57,30.42,29.98,15,6,0,0.02
2013-1-8,35.5,28.7,16.9,25.0,21.1,13.0,91,74,56,30.37,30.21,19,7,0,0.00
2013-1-9,36.0,32.1,28.4,34.0,27.1,23.0,94,82,71,30.42,29.84,18,4,0,0.01
2013-1-10,37.7,32.2,24.4,29.0,22.8,-99.9,85,71,58,30.51,29.83,22,-1,0,0.01
2013-1-11,33.2,26.9,20.0,23.0,17.7,16.0,84,69,51,30.54,30.28,11,3,0,0.00
2013-1-12,39.0,34.7,28.9,39.0,33.1,23.0,98,94,77,30.28,30.11,12,3,0,0.00
2013-1-13,44.5,38.5,34.4,44.0,38.1,34.0,99,98,98,30.16,29.94,15,5,0,0.00
2013-1-14,50.4,41.3,30.5,50.0,37.5,24.0,99,87,53,30.19,29.84,15,7,0,0.00
2013-1-15,32.1,29.0,24.9,24.0,20.9,16.0,77,72,67,30.31,30.16,6,3,0,0.00
2013-1-16,31.3,26.4,23.9,31.0,23.4,15.0,98,89,66,30.28,29.78,6,3,0,0.17
2013-1-17,32.8,22.6,5.2,30.0,16.1,-8.0,98,78,49,30.14,29.74,13,6,0,0.18
2013-1-18,12.4,5.4,-2.5,-4.0,-9.2,-14.0,59,51,43,30.42,30.11,14,6,0,0.00
2013-1-19,36.4,24.7,13.1,29.0,14.7,-4.0,91,66,47,30.39,29.92,19,8,0,0.00
2013-1-20,41.2,33.2,15.5,35.0,25.2,3.0,95,74,50,29.90,29.41,30,8,0,0.01
2013-1-21,18.0,12.7,5.6,3.0,-2.8,-6.0,67,51,35,30.02,29.79,22,6,0,0.00
2013-1-22,10.4,5.4,1.5,0.0,-4.6,-13.0,81,64,49,29.99,29.80,17,7,0,0.00
2013-1-23,1.1,-4.0,-8.5,-14.0,-17.4,-19.0,61,53,42,30.06,29.98,16,10,0,0.00
2013-1-24,5.5,-2.7,-9.7,-10.0,-14.7,-19.0,72,57,41,30.09,29.91,19,11,0,0.00
2013-1-25,14.3,5.5,-3.0,-1.0,-5.2,-12.0,75,62,48,30.19,30.08,16,7,0,0.00
2013-1-26,14.8,7.9,2.3,-2.0,-5.6,-8.0,69,55,40,30.09,29.98,19,7,0,0.00
2013-1-27,17.4,9.4,2.4,2.0,-1.0,-6.0,72,63,50,30.41,30.09,17,9,0,0.00
2013-1-28,24.8,15.1,6.2,17.0,0.5,-7.0,93,57,25,30.42,30.11,12,4,0,0.01
2013-1-29,32.2,24.6,15.8,26.0,19.7,14.0,93,82,65,30.24,30.10,6,2,0,0.01
2013-1-30,51.3,41.4,28.4,51.0,40.9,27.0,99,98,93,30.19,29.45,20,9,0,0.03
2013-1-31,53.8,48.9,50.9,54.0,43.1,-99.9,99,93,99,29.44,28.93,24,-44,0,0.05
2013-2-8,10.4,6.1,0.3,8.0,2.1,-11.0,90,84,54,30.58,30.00,28,11,0,0.00
2013-2-9,12.5,8.4,5.3,10.0,3.9,-99.9,91,87,88,30.11,29.76,35,10,0,0.00
2013-2-10,29.6,19.0,8.3,9.0,4.0,-1.0,90,55,37,30.38,30.11,16,7,0,0.00
2013-2-11,36.8,27.5,20.7,36.0,20.3,2.0,98,77,41,30.36,29.58,9,3,0,0.27
2013-2-12,37.1,32.5,28.2,32.0,29.6,27.0,98,89,77,29.74,29.51,19,6,0,0.29
2013-2-13,32.4,30.7,29.7,27.0,24.8,23.0,82,79,77,29.76,29.71,15,9,0,0.00
2013-2-17,15.1,14.0,14.1,9.0,-0.9,-99.9,79,68,69,29.33,29.17,24,-26,0,0.00
2013-2-18,24.8,17.0,10.8,6.0,2.2,-2.0,69,53,41,29.96,29.34,31,15,0,0.00
2013-2-19,41.5,27.1,13.7,37.0,10.1,-3.0,97,53,19,30.11,29.67,15,6,0,0.26
2013-2-20,39.9,31.3,23.0,39.0,26.3,16.0,98,82,69,29.66,29.38,19,9,0,0.94
2013-2-21,28.8,22.3,15.1,25.0,16.8,9.0,91,79,69,30.15,29.58,23,9,0,0.00
2013-2-22,33.5,26.9,22.0,22.0,19.5,18.0,87,74,59,30.40,30.16,20,8,0,0.00
2013-2-23,28.0,25.5,21.8,27.0,23.4,18.0,96,91,82,30.38,30.08,13,3,0,0.08
2013-2-24,26.1,25.1,22.4,25.0,24.1,21.0,96,96,93,30.08,29.81,15,7,0,0.02
2013-2-25,35.0,27.4,21.8,24.0,20.1,14.0,93,75,50,30.26,29.91,17,7,0,0.02
2013-2-26,38.3,32.7,28.4,28.0,24.6,18.0,84,72,59,30.37,30.27,7,2,0,0.00
2013-2-27,35.7,30.2,27.0,29.0,25.6,22.0,96,84,59,30.30,29.73,18,6,0,0.14
2013-2-28,36.7,32.3,27.4,36.0,31.8,27.0,98,98,96,29.71,29.55,19,9,0,0.16
2013-3-1,29.5,28.0,26.6,29.0,27.4,26.0,98,97,97,29.66,29.53,20,9,0,0.08
2013-3-2,31.9,29.5,26.4,31.0,28.9,26.0,98,98,97,29.64,29.60,8,4,0,0.10
2013-3-3,36.1,32.4,30.7,36.0,31.7,29.0,98,97,90,29.61,29.49,13,3,0,0.14
2013-3-4,31.2,29.2,26.9,31.0,28.1,26.0,98,96,89,29.68,29.46,23,9,0,0.12
2013-3-5,36.8,32.4,30.5,36.0,31.8,30.0,98,98,96,30.15,29.69,20,12,0,0.13
2013-3-6,33.3,30.0,27.7,30.0,27.2,23.0,98,89,75,30.31,30.16,20,12,0,0.00
2013-3-7,32.4,28.7,27.0,23.0,22.8,22.0,86,79,68,30.27,30.13,25,17,0,0.00
2013-3-8,41.1,31.5,25.1,23.0,21.5,19.0,92,69,41,30.24,30.10,35,19,0,0.00
2013-3-9,39.2,30.7,24.3,24.0,22.5,21.0,88,73,49,30.39,30.21,21,11,0,0.00
2013-3-10,39.4,28.4,21.2,27.0,24.2,20.0,95,85,60,30.44,30.31,13,3,0,0.00
2013-3-11,42.8,35.0,29.2,37.0,32.4,28.0,98,90,71,30.33,30.17,14,6,0,0.00
2013-3-12,45.1,41.8,37.3,45.0,41.3,37.0,99,98,93,30.17,29.77,22,5,0,0.52
2013-3-13,45.7,39.6,31.2,46.0,37.5,25.0,99,92,75,29.77,29.65,15,5,0,0.82
2013-3-14,37.0,29.6,17.7,25.0,21.3,10.0,91,72,50,29.70,29.61,16,6,0,0.00
2013-3-15,30.1,21.2,12.1,20.0,9.2,4.0,84,62,38,29.75,29.62,14,6,0,0.00
2013-3-16,29.9,23.1,15.9,20.0,13.5,8.0,93,69,41,29.90,29.63,14,5,0,0.00
2013-3-17,24.5,17.8,12.1,9.0,3.4,-6.0,77,55,34,30.29,29.90,18,6,0,0.00
2013-3-18,29.4,19.7,8.7,9.0,-0.8,-5.0,56,42,28,30.44,30.29,13,4,0,0.00
2013-3-19,26.5,21.2,18.1,21.0,15.3,4.0,100,80,44,30.32,29.69,19,8,0,0.10
2013-3-20,30.4,22.4,14.4,27.0,19.4,13.0,100,88,77,29.70,29.58,22,8,0,0.12
2013-3-21,37.5,28.1,21.2,23.0,17.7,11.0,90,67,37,29.76,29.62,15,5,0,0.00
2013-3-22,34.4,26.1,19.5,19.0,16.3,14.0,80,68,44,29.63,29.57,14,6,0,0.00
2013-3-23,35.1,28.5,21.2,24.0,19.3,14.0,80,69,54,29.61,29.44,18,9,0,0.00
2013-3-24,39.7,33.8,28.8,27.0,24.3,23.0,80,69,53,29.78,29.60,13,6,0,0.00
2013-3-25,38.4,33.4,29.2,29.0,26.5,25.0,94,77,59,29.78,29.62,17,9,0,0.00
2013-3-26,42.5,34.0,25.7,29.0,25.1,21.0,83,71,52,29.71,29.55,21,8,0,0.00
2013-3-27,36.0,32.9,30.5,35.0,31.0,27.0,98,92,80,29.88,29.68,17,7,0,0.10
2013-3-28,45.6,37.7,32.0,36.0,31.3,27.0,94,79,51,29.96,29.87,14,5,0,0.10
2013-3-29,47.2,40.7,35.9,35.0,32.1,29.0,87,73,55,29.99,29.93,9,5,0,0.00
2013-3-30,48.9,40.8,32.6,31.0,21.3,10.0,86,50,27,30.07,29.98,12,4,0,0.00
2013-3-31,49.9,39.9,32.3,34.0,19.1,13.0,90,46,26,30.11,29.88,12,4,0,0.00
2013-4-1,44.4,36.8,28.5,40.0,34.8,22.0,98,92,78,29.87,29.51,16,6,0,0.11
2013-4-2,30.8,26.4,21.7,22.0,13.0,9.0,78,58,42,29.78,29.63,18,9,0,0.11
2013-4-3,34.4,27.3,22.7,18.0,14.5,9.0,79,59,48,29.99,29.75,21,10,0,0.00
2013-4-4,45.7,32.4,24.6,18.0,12.0,8.0,68,46,23,30.18,29.99,16,8,0,0.00
2013-4-29,59.3,51.6,47.0,43.0,37.2,24.0,79,60,39,30.27,30.22,10,5,0,0.00
2013-4-30,65.7,55.5,41.6,42.0,33.1,24.0,87,45,29,30.36,30.24,12,4,0,0.00
2013-5-1,71.0,59.2,49.2,36.0,28.0,18.0,45,31,20,30.45,30.36,16,4,0,0.00
2013-5-2,62.7,55.0,44.7,43.0,35.4,29.0,70,49,30,30.52,30.40,15,5,0,0.00
2013-5-3,63.4,48.9,37.4,45.0,39.1,34.0,86,70,45,30.57,30.39,12,5,0,0.00
2013-5-4,63.0,47.5,38.6,40.0,34.3,27.0,87,64,27,30.41,30.30,15,5,0,0.00
2013-5-5,66.5,50.0,37.8,40.0,35.2,32.0,86,60,32,30.34,30.23,13,6,0,0.00
2013-5-6,66.4,51.0,41.1,44.0,40.0,36.0,95,69,36,30.27,30.15,15,6,0,0.00
2013-5-7,73.1,57.4,42.5,54.0,46.5,37.0,96,72,27,30.17,30.09,14,5,0,0.00
2013-5-8,72.6,62.3,51.9,57.0,54.5,51.0,96,77,48,30.23,30.14,12,5,0,0.00
2013-5-9,55.7,52.2,49.8,56.0,51.8,49.0,99,98,96,30.13,29.91,6,2,0,0.02
2013-5-10,69.8,58.0,47.7,60.0,54.9,47.0,99,90,68,29.96,29.89,8,2,0,0.07
2013-5-11,56.8,52.4,46.3,57.0,52.1,46.0,99,99,97,29.94,29.69,15,5,0,0.08
2013-5-12,57.1,54.0,44.1,57.0,53.8,43.0,99,99,97,29.70,29.53,10,2,0,0.16
2013-5-13,53.8,45.9,38.8,43.0,33.2,29.0,97,64,40,30.00,29.68,13,5,0,0.16
2013-5-14,52.4,45.1,37.7,33.0,31.0,29.0,77,59,46,30.02,29.95,10,3,0,0.00
2013-5-15,60.0,47.8,39.9,46.0,32.8,25.0,97,61,26,30.00,29.66,23,6,0,0.23
2013-5-16,70.4,54.6,45.2,53.0,48.2,43.0,99,82,38,29.66,29.57,17,5,0,0.23
2013-5-31,87.0,78.7,78.2,66.0,58.1,-99.9,65,54,46,29.89,0.00,13,-32,0,0.00
2013-6-1,90.3,79.7,69.2,70.0,64.1,60.0,82,60,39,29.89,29.77,13,4,0,0.00
2013-6-2,86.2,75.2,64.3,71.0,65.5,62.0,94,73,53,29.78,29.63,19,6,0,0.09
2013-6-3,73.3,65.8,58.8,65.0,62.2,53.0,97,88,72,29.78,29.67,14,4,0,0.00
2013-6-4,61.4,55.6,49.9,53.0,44.0,39.0,88,67,48,30.01,29.75,13,4,0,0.00
2013-6-5,67.5,56.1,45.2,44.0,41.0,38.0,82,59,35,30.16,30.02,11,3,0,0.00
2013-6-6,68.5,58.1,52.0,49.0,43.1,38.0,85,59,41,30.21,30.15,9,2,0,0.00
2013-6-7,59.1,53.7,49.3,51.0,47.0,42.0,98,80,56,30.16,29.98,7,2,0,0.30
2013-6-8,59.8,54.1,49.9,57.0,53.2,49.0,100,96,89,29.98,29.67,18,6,0,1.04
2013-6-9,67.7,57.6,49.6,61.0,54.6,49.0,98,90,73,30.14,29.97,7,2,0,0.12
2013-6-10,70.7,60.2,51.6,58.0,53.1,50.0,96,79,53,30.21,30.04,9,2,0,0.00
2013-6-11,56.9,52.3,50.9,52.0,51.1,49.0,99,96,79,30.04,29.54,18,6,0,1.37
2013-6-12,54.2,52.6,50.6,54.0,52.1,50.0,99,98,87,29.74,29.49,18,9,0,0.46
2013-6-13,67.0,57.4,50.2,54.0,50.4,47.0,94,79,50,29.79,29.73,14,4,0,0.00
2013-6-14,70.3,59.9,53.1,58.0,52.8,48.0,93,78,55,29.74,29.65,8,2,0,0.02
2013-6-15,57.2,55.7,54.1,54.0,52.8,51.0,90,89,89,29.72,29.70,7,6,0,0.00
2013-7-2,55.5,55.0,54.7,55.0,55.0,55.0,99,99,99,30.22,30.19,6,3,0,0.07
2013-7-3,81.9,67.8,55.1,73.0,64.8,55.0,99,91,68,30.19,30.10,7,2,0,0.00
2013-7-4,86.1,77.0,70.1,73.0,70.5,68.0,95,81,61,30.15,30.03,10,4,0,0.00
2013-7-5,86.8,78.0,71.0,73.0,70.6,68.0,94,79,57,30.07,29.98,10,4,0,0.18
2013-7-6,82.9,76.3,71.0,72.0,68.4,61.0,88,77,61,29.99,29.89,13,4,0,0.00
2013-7-7,83.6,76.1,69.3,68.0,65.0,61.0,79,69,57,29.93,29.87,12,5,0,0.00
2013-7-8,73.5,67.1,55.6,67.0,61.8,51.0,96,83,63,30.07,29.89,10,3,0,0.03
2013-7-9,72.8,65.3,58.9,66.0,62.3,58.0,100,90,69,30.13,30.07,7,2,0,0.02
2013-7-10,66.8,61.1,58.7,64.0,60.3,58.0,100,97,89,30.09,29.78,8,2,0,0.02
2013-7-11,74.0,69.0,62.8,71.0,66.7,57.0,99,93,66,29.96,29.75,13,3,0,0.89
2013-7-12,75.6,67.0,57.7,57.0,54.6,51.0,83,66,49,30.21,29.96,19,6,0,0.00
2013-7-13,81.6,72.5,63.2,64.0,58.0,51.0,80,61,46,30.31,30.21,10,2,0,0.00
2013-7-14,86.4,76.0,65.8,70.0,66.1,59.0,87,73,53,30.26,30.16,10,3,0,0.00
2013-7-15,89.7,78.8,69.7,70.0,66.9,64.0,85,68,47,30.16,30.04,9,2,0,0.00
2013-7-16,88.5,78.5,66.8,70.0,66.5,62.0,85,68,47,30.15,30.07,7,2,0,0.00
2013-7-17,84.9,74.4,64.1,72.0,66.4,61.0,90,76,56,30.15,29.92,16,5,0,0.00
2013-7-20,69.9,67.7,64.7,66.0,64.3,61.0,94,89,84,29.76,29.59,15,4,0,0.31
2013-7-21,74.2,65.7,59.1,61.0,56.6,51.0,86,73,60,30.02,29.76,10,3,0,0.00
2013-7-22,73.4,63.5,58.8,64.0,56.4,49.0,95,78,68,30.05,29.94,9,2,0,0.00
2013-7-23,65.8,61.7,57.2,65.0,60.8,53.0,99,97,76,29.93,29.54,5,1,0,1.11
2013-7-24,79.3,67.0,53.6,70.0,62.7,49.0,99,86,68,29.96,29.56,13,3,0,0.45
2013-7-25,69.5,59.3,49.9,58.0,52.6,47.0,93,79,63,30.14,29.96,13,4,0,0.01
2013-7-26,62.7,60.6,58.9,63.0,59.7,57.0,99,97,84,30.11,29.88,18,8,0,0.30
2013-7-27,80.2,67.6,58.8,67.0,62.3,59.0,99,84,57,30.04,29.88,13,3,0,0.01
2013-7-28,70.2,65.2,59.6,66.0,62.6,59.0,98,91,82,30.05,30.01,11,2,0,0.03
2013-7-29,73.7,65.9,61.9,69.0,64.0,61.0,98,94,83,30.04,29.99,5,1,0,0.00
2013-8-1,76.1,70.3,66.9,64.0,53.7,-99.9,74,61,54,29.99,29.91,11,-35,0,0.00
2013-9-11,80.1,70.2,70.0,73.0,60.1,-99.9,93,81,78,29.96,0.00,18,-51,0,0.08
2013-9-18,67.2,62.0,56.4,48.0,46.3,44.0,71,57,46,30.25,30.08,11,5,0,0.00
2013-9-19,71.9,61.3,51.7,54.0,48.8,44.0,83,65,42,30.11,30.01,10,3,0,0.00
2013-9-20,73.6,62.9,52.8,57.0,51.9,48.0,96,69,52,30.10,30.02,5,2,0,0.00
2013-9-21,64.4,57.5,51.8,60.0,55.2,51.0,98,92,74,30.02,29.79,15,5,0,0.00
2013-9-22,67.2,60.2,49.5,63.0,58.4,46.0,99,94,83,29.78,29.58,21,5,0,0.39
2013-9-23,52.0,46.4,39.7,45.0,40.9,37.0,92,81,70,29.89,29.70,14,5,0,0.00
2013-9-24,47.9,45.0,41.4,44.0,41.4,39.0,96,87,81,29.89,29.81,12,4,0,0.04
2013-9-25,56.6,49.0,43.9,48.0,44.9,42.0,97,86,70,29.97,29.85,9,3,0,0.00
2013-9-26,58.6,51.6,46.0,50.0,47.4,44.0,94,85,71,30.13,29.96,12,3,0,0.00
2013-9-27,66.0,58.0,50.6,53.0,50.2,48.0,93,76,58,30.25,30.13,11,4,0,0.00
2013-9-28,68.0,59.9,52.4,55.0,48.6,40.0,85,68,48,30.34,30.25,8,2,0,0.00
2013-9-29,68.0,57.8,47.0,47.0,43.3,38.0,86,60,43,30.26,30.11,6,3,0,0.00
2013-9-30,66.2,53.4,43.6,51.0,45.2,40.0,97,76,47,30.12,29.98,7,2,0,0.00
2013-10-1,72.4,60.6,50.0,54.0,47.2,40.0,83,63,45,29.98,29.82,12,3,0,0.00
2013-10-2,74.5,64.5,58.0,60.0,53.6,46.0,83,68,52,29.86,29.72,15,5,0,0.00
2013-10-3,69.2,61.2,55.1,49.0,44.6,40.0,65,55,43,30.05,29.86,13,4,0,0.00
2013-10-4,67.2,58.7,52.8,49.0,43.8,36.0,72,58,44,30.09,30.02,12,3,0,0.01
2013-10-5,60.7,53.0,47.5,47.0,41.6,37.0,85,66,50,30.16,30.08,7,3,0,0.00
2013-10-6,57.0,47.5,39.8,43.0,37.4,33.0,96,69,49,30.29,30.16,21,6,0,0.24
2013-10-7,64.4,55.4,44.0,64.0,55.0,43.0,99,98,96,30.22,29.80,21,7,0,0.58
2013-10-8,61.6,51.6,44.2,61.0,43.8,37.0,99,76,53,30.38,29.80,15,6,0,0.00
2013-10-9,60.6,50.1,42.9,43.0,39.2,37.0,79,67,49,30.49,30.36,11,3,0,0.00
2013-10-10,66.8,55.1,48.2,50.0,41.5,34.0,80,61,40,30.36,30.18,13,4,0,0.00
2013-10-11,69.5,60.2,52.0,53.0,47.9,40.0,78,65,48,30.20,30.13,11,5,0,0.00
2013-10-12,57.5,51.3,48.6,51.0,47.9,46.0,97,88,78,30.41,30.20,11,3,0,0.00
2013-10-13,57.5,49.9,45.5,48.0,44.8,41.0,94,83,67,30.47,30.38,7,2,0,0.00
2013-10-14,61.2,50.7,44.1,49.0,45.6,43.0,95,83,63,30.38,30.25,11,5,0,0.01
2013-10-15,61.8,54.4,48.6,51.0,49.6,47.0,94,84,67,30.29,30.21,7,3,0,0.00
2013-10-16,55.8,52.5,50.4,53.0,50.7,49.0,97,93,81,30.22,29.90,10,2,0,0.00
2013-10-17,64.5,55.8,50.8,56.0,52.0,47.0,98,88,68,29.89,29.73,12,3,0,0.00
2013-10-18,59.3,53.2,48.9,55.0,48.2,42.0,98,84,64,29.80,29.57,17,5,0,0.11
2013-10-19,60.1,51.2,45.6,47.0,41.6,37.0,90,71,50,29.91,29.76,11,5,0,0.00
2013-10-20,56.8,50.5,44.3,49.0,39.6,29.0,97,70,37,29.91,29.65,15,6,0,0.01
2013-10-21,56.8,47.8,40.4,45.0,36.4,31.0,87,66,48,30.05,29.91,14,6,0,0.00
2013-10-22,58.8,50.3,41.8,50.0,46.5,39.0,96,87,67,29.99,29.68,14,6,0,0.00
2013-10-23,49.6,43.4,37.8,39.0,33.3,30.0,89,69,49,29.75,29.58,10,2,0,0.00
2013-10-24,44.9,39.5,34.3,34.0,28.8,24.0,83,67,46,29.77,29.58,21,6,0,0.00
2013-10-25,47.2,38.5,34.1,31.0,28.9,25.0,82,69,52,30.06,29.78,17,7,0,0.00
2013-10-26,45.1,38.5,31.4,36.0,29.1,23.0,90,70,54,30.09,29.86,14,6,0,0.01
2013-10-27,50.0,41.9,35.9,39.0,34.4,28.0,94,76,59,29.96,29.77,13,6,0,0.02
2013-10-28,48.6,38.4,30.2,35.0,28.8,23.0,77,69,57,30.33,29.96,17,6,0,0.00
2013-10-29,42.4,34.0,26.5,27.0,21.3,15.0,81,62,38,30.45,30.33,11,4,0,0.00
2013-10-30,42.2,36.3,31.4,26.0,21.2,15.0,72,55,41,30.35,30.17,10,4,0,0.00
2013-10-31,55.9,43.7,35.3,55.0,38.7,26.0,98,83,68,30.25,29.78,18,5,0,0.28
2013-11-1,61.1,57.6,54.2,59.0,55.7,46.0,98,93,75,29.78,29.27,27,13,0,0.54
2013-11-2,59.4,52.5,39.9,47.0,42.2,35.0,90,69,54,29.75,29.50,17,5,0,0.01
2013-11-3,39.3,32.8,26.3,35.0,22.3,14.0,94,67,40,30.41,29.76,21,11,0,0.00
2013-11-4,36.4,29.2,21.7,20.0,16.4,15.0,81,60,44,30.74,30.42,21,5,0,0.00
2013-11-5,43.5,35.9,30.0,34.0,25.9,17.0,86,68,57,30.74,30.49,12,5,0,0.00
2013-11-6,51.0,43.4,37.7,46.0,39.0,31.0,96,84,70,30.49,29.97,19,8,0,0.00
2013-11-7,54.8,47.4,35.0,53.0,45.2,31.0,97,92,84,29.96,29.62,26,10,0,0.09
2013-11-8,40.0,34.6,31.3,31.0,25.3,23.0,85,69,52,29.92,29.71,19,7,0,0.00
2013-11-9,38.4,33.6,31.2,24.0,21.3,19.0,74,61,48,30.11,29.93,15,6,0,0.00
2013-11-10,39.2,34.5,29.9,38.0,32.1,21.0,97,91,67,30.08,29.71,7,3,0,0.03
2013-11-11,39.6,35.9,32.5,35.0,30.3,27.0,97,81,65,29.98,29.72,14,7,0,0.00
2013-11-12,39.5,28.8,23.3,30.0,19.6,14.0,84,69,62,30.05,29.80,19,9,0,0.00
2013-11-13,28.8,23.5,19.2,14.0,12.5,11.0,76,64,48,30.20,30.06,15,8,0,0.00
2013-11-14,39.6,33.7,25.0,29.0,23.0,12.0,69,65,57,30.09,29.98,16,7,0,0.00
2013-11-15,46.9,42.8,37.8,29.0,25.4,21.0,68,51,39,30.19,30.08,10,4,0,0.00
2013-11-16,50.0,44.5,40.9,39.0,28.0,20.0,93,54,36,30.34,30.18,7,2,0,0.00
2013-11-17,47.1,42.0,35.1,47.0,40.3,34.0,98,93,82,30.36,29.97,13,4,0,0.12
2013-11-18,57.0,51.7,45.0,56.0,46.6,31.0,99,84,58,29.96,29.45,16,8,0,0.65
2013-11-19,44.3,33.1,28.1,31.0,20.9,16.0,70,61,56,30.15,29.53,22,10,0,0.00
2013-11-20,33.4,27.6,23.3,16.0,11.5,7.0,64,52,34,30.63,30.16,23,10,0,0.00
2013-11-21,47.8,33.8,24.0,20.0,11.3,2.0,62,43,15,30.63,30.34,13,5,0,0.00
2013-11-22,37.6,34.3,31.6,31.0,20.4,10.0,92,59,35,30.33,29.75,10,3,0,0.00
2013-11-23,34.4,30.1,22.8,33.0,21.9,14.0,96,73,50,29.76,29.62,22,10,0,0.03
2013-11-24,22.5,17.2,14.1,16.0,5.0,2.0,76,59,49,29.91,29.61,30,15,0,0.00
2013-11-25,26.2,17.3,10.8,11.0,1.8,-1.0,66,52,36,30.32,29.92,26,10,0,0.00
2013-11-26,30.0,27.5,22.6,28.0,22.4,11.0,95,82,53,30.32,30.20,11,4,0,0.04
2013-11-27,55.9,45.6,29.6,55.0,45.0,28.0,98,98,95,30.19,29.14,22,9,0,3.30
2013-11-28,33.7,23.9,15.3,33.0,16.3,6.0,98,74,52,30.35,29.23,23,11,0,0.01
2013-11-29,20.7,15.7,11.9,9.0,7.4,5.0,84,70,52,30.74,30.35,16,7,0,0.00
2013-11-30,24.7,17.5,11.1,21.0,9.7,5.0,86,73,46,30.82,30.46,9,4,0,0.00
2013-12-1,32.6,29.7,25.2,32.0,28.1,21.0,98,93,83,30.45,30.12,10,3,0,0.21
2013-12-2,33.2,31.8,30.0,33.0,31.4,29.0,98,98,97,30.12,29.94,9,2,0,0.56
2013-12-3,34.9,32.5,28.7,34.0,32.0,28.0,100,98,98,29.94,29.85,15,6,0,0.04
2013-12-4,36.6,30.3,26.5,31.0,27.2,25.0,98,88,73,30.21,29.86,18,8,0,0.00
2013-12-5,45.3,33.5,27.1,45.0,31.9,25.0,98,93,84,30.29,29.93,12,4,0,0.06
2013-12-6,47.1,37.6,31.6,47.0,35.4,23.0,99,92,70,30.09,29.86,12,6,0,0.27
2013-12-7,31.5,26.9,18.0,22.0,15.5,8.0,75,63,51,30.38,30.06,17,7,0,0.00
2013-12-8,21.4,18.3,14.6,10.0,7.4,6.0,76,63,52,30.61,30.37,12,5,0,0.00
2013-12-9,22.9,18.4,16.1,22.0,13.1,6.0,95,81,62,30.58,29.85,10,4,0,0.07
2013-12-10,30.2,25.0,16.8,28.0,21.3,10.0,95,85,73,29.87,29.73,14,6,0,0.00
2013-12-11,23.7,18.1,14.4,17.0,11.0,8.0,91,74,59,30.10,29.86,15,7,0,0.00
2013-12-12,14.5,8.3,5.2,8.0,-1.9,-7.0,79,64,49,30.23,30.00,14,6,0,0.00
2013-12-13,16.8,9.4,-1.2,8.0,-0.6,-10.0,79,65,45,30.38,29.88,28,9,0,0.00
2013-12-14,7.6,1.5,-5.5,-1.0,-10.1,-15.0,80,59,45,30.65,30.38,20,6,0,0.00
2013-12-15,12.7,7.7,3.3,11.0,5.1,-1.0,91,89,82,30.45,29.46,28,13,0,0.00
2013-12-16,15.9,9.4,-2.2,10.0,3.1,-10.0,90,76,53,30.19,29.67,21,8,0,0.00
2013-12-17,10.2,3.3,-4.5,8.0,-4.4,-11.0,90,71,56,30.33,30.10,11,5,0,0.00
2013-12-18,20.6,14.7,6.5,18.0,12.5,4.0,100,90,85,30.09,29.87,13,6,0,0.06
2013-12-19,30.6,25.3,20.6,24.0,21.1,17.0,92,84,76,30.09,29.93,18,7,0,0.00
2013-12-20,34.3,31.0,23.9,33.0,27.7,23.0,97,88,70,30.15,29.93,7,3,0,0.02
2013-12-21,41.4,27.6,20.4,41.0,26.6,19.0,98,96,94,29.99,29.84,15,5,0,0.01
2013-12-22,26.1,23.8,21.5,25.0,22.9,20.0,96,96,95,30.11,29.88,15,5,0,0.23
2013-12-23,31.9,27.0,22.7,31.0,26.1,22.0,98,96,95,30.14,30.00,0,0,0,0.30
2013-12-24,28.6,17.9,6.5,28.0,16.5,4.0,97,93,90,30.15,30.06,0,0,0,0.00
2013-12-25,14.1,6.8,3.8,12.0,-8.8,-99.9,100,78,89,30.47,30.14,0,-91,0,0.00